^^
Station Historical Data
Daily Summary for March 9, 2018 Units:  English    Metric   Both
« Previous Day
Next Day »
Daily Weekly Monthly Yearly Custom
  High: Low: Average:
Temperature: TemperatureF °F 54.7 °F 67.9 °F
Dew Point: DewpointF °F 20.5 °F 41.9 °F
Humidity: Humidity% 8% 45%
Wind Speed: WindSpeedMPHmph 0.0mph 5.5mph
Wind Gust: WindSpeedGustMPHmph - -
Wind- - SSW
Pressure: PressureIn in 29.68 in -
Precipitation: 0.00 in    
Historical Graphs
 
 
Tabular Data for March 9, 2018
Time Temperature Dew Point Pressure Wind Wind Speed Wind Gust Humidity Rainfall Rate (Hourly) solar Conditions
TemperatureF °F DewpointF °F PressureIn in Calm     Humidity% HourlyPrecipIn in SolarRadiationWatts/m^2 W/m2 Conditions
00:02 63.7 °F 47.3 °F 29.87 in SSE 11.0 mph 12.0 mph 55% 0.00 in 0.0 W/m2
00:07 63.5 °F 47.5 °F 29.87 in SSE 10.1 mph 14.0 mph 56% 0.00 in 0.0 W/m2
00:17 63.3 °F 46.9 °F 29.87 in South 12.1 mph 12.1 mph 55% 0.00 in 0.0 W/m2
00:22 63.3 °F 47.3 °F 29.87 in SSE 8.9 mph 11.0 mph 56% 0.00 in 0.0 W/m2
00:27 63.1 °F 47.1 °F 29.87 in South 6.0 mph 10.0 mph 56% 0.00 in 0.0 W/m2
00:32 63.0 °F 46.9 °F 29.87 in South 6.9 mph 8.0 mph 56% 0.00 in 0.0 W/m2
00:37 62.8 °F 47.3 °F 29.87 in South 6.0 mph 9.0 mph 57% 0.00 in 0.0 W/m2
00:42 62.8 °F 47.3 °F 29.87 in South 6.0 mph 10.0 mph 57% 0.00 in 0.0 W/m2
00:47 62.8 °F 47.3 °F 29.86 in South 6.0 mph 8.0 mph 57% 0.00 in 0.0 W/m2
00:52 62.6 °F 46.8 °F 29.86 in South 6.0 mph 10.0 mph 56% 0.00 in 0.0 W/m2
00:57 62.4 °F 46.9 °F 29.86 in South 8.1 mph 10.0 mph 57% 0.00 in 0.0 W/m2
01:08 62.2 °F 46.8 °F 29.86 in SSW 8.9 mph 9.0 mph 57% 0.00 in 0.0 W/m2
01:13 62.1 °F 47.1 °F 29.86 in SSW 4.9 mph 8.0 mph 58% 0.00 in 0.0 W/m2
01:18 61.9 °F 46.9 °F 29.86 in SSW 6.9 mph 10.0 mph 58% 0.00 in 0.0 W/m2
01:23 61.9 °F 46.9 °F 29.85 in South 8.1 mph 10.0 mph 58% 0.00 in 0.0 W/m2
01:28 61.5 °F 47.1 °F 29.85 in SSW 8.9 mph 10.0 mph 59% 0.00 in 0.0 W/m2
01:33 61.3 °F 47.3 °F 29.85 in SSW 8.1 mph 10.0 mph 60% 0.00 in 0.0 W/m2
01:38 61.2 °F 47.1 °F 29.85 in SSW 6.0 mph 9.0 mph 60% 0.00 in 0.0 W/m2
01:43 61.0 °F 46.9 °F 29.85 in SSW 8.1 mph 10.0 mph 60% 0.00 in 0.0 W/m2
01:48 61.0 °F 46.9 °F 29.85 in SSW 8.9 mph 9.0 mph 60% 0.00 in 0.0 W/m2
01:54 60.8 °F 46.8 °F 29.85 in SSW 6.9 mph 8.0 mph 60% 0.00 in 0.0 W/m2
01:59 60.6 °F 46.6 °F 29.85 in SSW 6.0 mph 7.0 mph 60% 0.00 in 0.0 W/m2
02:04 60.4 °F 46.9 °F 29.85 in SSW 6.9 mph 9.0 mph 61% 0.00 in 0.0 W/m2
02:09 60.3 °F 46.8 °F 29.85 in SSW 8.9 mph 10.0 mph 61% 0.00 in 0.0 W/m2
02:14 60.4 °F 46.9 °F 29.85 in SSW 10.1 mph 10.1 mph 61% 0.00 in 0.0 W/m2
02:19 60.4 °F 46.9 °F 29.85 in SSW 6.0 mph 9.0 mph 61% 0.00 in 0.0 W/m2
02:24 60.4 °F 46.9 °F 29.85 in SSW 8.9 mph 9.0 mph 61% 0.00 in 0.0 W/m2
02:34 60.3 °F 46.8 °F 29.84 in SSW 6.0 mph 9.0 mph 61% 0.00 in 0.0 W/m2
02:43 59.9 °F 46.8 °F 29.84 in SSW 4.9 mph 6.0 mph 62% 0.00 in 0.0 W/m2
02:48 59.7 °F 46.8 °F 29.84 in SSW 4.9 mph 6.0 mph 62% 0.00 in 0.0 W/m2
02:53 59.7 °F 46.8 °F 29.85 in SSW 6.0 mph 6.0 mph 62% 0.00 in 0.0 W/m2
02:58 59.5 °F 46.6 °F 29.85 in SSW 4.9 mph 8.0 mph 62% 0.00 in 0.0 W/m2
03:03 59.5 °F 46.9 °F 29.84 in SSW 6.9 mph 9.0 mph 63% 0.00 in 0.0 W/m2
03:13 59.7 °F 47.1 °F 29.84 in SSW 8.1 mph 10.0 mph 63% 0.00 in 0.0 W/m2
03:18 59.5 °F 46.9 °F 29.84 in SSW 6.9 mph 10.0 mph 63% 0.00 in 0.0 W/m2
03:23 59.4 °F 46.8 °F 29.84 in SSW 6.0 mph 7.0 mph 63% 0.00 in 0.0 W/m2
03:28 59.2 °F 46.9 °F 29.84 in SSW 6.9 mph 7.0 mph 64% 0.00 in 0.0 W/m2
03:39 58.8 °F 47.1 °F 29.84 in SSW 2.9 mph 4.0 mph 65% 0.00 in 0.0 W/m2
03:44 58.6 °F 47.3 °F 29.84 in Calm   3.0 mph 66% 0.00 in 0.0 W/m2
03:50 58.5 °F 47.1 °F 29.85 in Calm     66% 0.00 in 0.0 W/m2
03:55 58.3 °F 46.9 °F 29.85 in Calm     66% 0.00 in 0.0 W/m2
04:05 57.7 °F 47.3 °F 29.84 in SSW 4.9 mph 6.0 mph 68% 0.00 in 0.0 W/m2
04:10 57.7 °F 47.7 °F 29.84 in SSW 4.9 mph 6.0 mph 69% 0.00 in 0.0 W/m2
04:15 57.9 °F 47.8 °F 29.85 in SSW 6.0 mph 6.0 mph 69% 0.00 in 0.0 W/m2
04:20 57.9 °F 47.5 °F 29.84 in SSW 4.9 mph 6.0 mph 68% 0.00 in 0.0 W/m2
04:25 57.9 °F 47.8 °F 29.84 in SSW 4.9 mph 7.0 mph 69% 0.00 in 0.0 W/m2
04:30 58.1 °F 47.7 °F 29.84 in SSW 4.0 mph 6.0 mph 68% 0.00 in 0.0 W/m2
04:35 57.9 °F 47.8 °F 29.84 in SSW 6.0 mph 6.0 mph 69% 0.00 in 0.0 W/m2
04:45 57.7 °F 47.7 °F 29.84 in SSW 4.9 mph 7.0 mph 69% 0.00 in 0.0 W/m2
04:50 57.6 °F 47.8 °F 29.84 in SSW 4.9 mph 7.0 mph 70% 0.00 in 0.0 W/m2
04:55 57.6 °F 47.8 °F 29.84 in SSW 4.9 mph 6.0 mph 70% 0.00 in 0.0 W/m2
05:05 57.4 °F 48.0 °F 29.84 in SSW 4.0 mph 5.0 mph 71% 0.00 in 0.0 W/m2
05:10 57.4 °F 48.0 °F 29.84 in SSW 4.0 mph 6.0 mph 71% 0.00 in 0.0 W/m2
05:15 57.2 °F 47.8 °F 29.84 in SSW 4.9 mph 7.0 mph 71% 0.00 in 0.0 W/m2
05:21 57.0 °F 47.7 °F 29.84 in SSW 4.9 mph 6.0 mph 71% 0.00 in 0.0 W/m2
05:27 56.8 °F 47.8 °F 29.84 in SSW 6.9 mph 7.0 mph 72% 0.00 in 0.0 W/m2
05:33 56.8 °F 47.8 °F 29.84 in SSW 4.9 mph 7.0 mph 72% 0.00 in 0.0 W/m2
05:38 56.8 °F 48.2 °F 29.84 in SSW 6.0 mph 8.0 mph 73% 0.00 in 0.0 W/m2
05:46 56.8 °F 47.8 °F 29.84 in SSW 6.0 mph 7.0 mph 72% 0.00 in 0.0 W/m2
05:51 56.7 °F 47.7 °F 29.84 in Calm   4.0 mph 72% 0.00 in 0.0 W/m2
05:56 56.7 °F 47.7 °F 29.84 in Calm     72% 0.00 in 0.0 W/m2
06:02 56.5 °F 48.0 °F 29.84 in Calm     73% 0.00 in 0.0 W/m2
06:09 56.1 °F 47.7 °F 29.84 in Calm     73% 0.00 in 0.0 W/m2
06:15 55.9 °F 47.8 °F 29.84 in SSW 4.0 mph 5.0 mph 74% 0.00 in 0.0 W/m2
06:37 55.4 °F 47.3 °F 29.85 in SSW 2.9 mph 4.0 mph 74% 0.00 in 0.0 W/m2
06:52 54.7 °F 46.6 °F 29.85 in SSW 4.0 mph 4.0 mph 74% 0.00 in 5.0 W/m2
07:44 57.7 °F 48.7 °F 29.87 in Calm     72% 0.00 in 128.0 W/m2
07:59 59.0 °F 49.3 °F 29.87 in SSW 4.0 mph 4.0 mph 70% 0.00 in 197.0 W/m2
08:10 59.7 °F 49.1 °F 29.87 in Calm     68% 0.00 in 244.0 W/m2
09:11 64.0 °F 48.9 °F 29.87 in Calm     58% 0.00 in 466.0 W/m2
09:27 65.5 °F 48.4 °F 29.87 in Calm     54% 0.00 in 519.0 W/m2
09:43 66.9 °F 47.7 °F 29.87 in Calm     50% 0.00 in 566.0 W/m2
10:08 69.4 °F 46.6 °F 29.86 in Calm     44% 0.00 in 647.0 W/m2
10:23 71.1 °F 44.8 °F 29.86 in Calm     39% 0.00 in 693.0 W/m2
10:33 72.3 °F 43.9 °F 29.86 in Calm     36% 0.00 in 717.0 W/m2
10:49 74.3 °F 43.3 °F 29.85 in Calm     33% 0.00 in 754.0 W/m2
11:20 77.7 °F 40.1 °F 29.84 in WSW 6.9 mph 7.0 mph 26% 0.00 in 817.0 W/m2
11:36 78.4 °F 40.6 °F 29.84 in WSW 6.0 mph 7.0 mph 26% 0.00 in 840.0 W/m2
12:39 80.4 °F 40.3 °F 29.82 in West 6.9 mph 8.0 mph 24% 0.00 in 909.0 W/m2
13:37 82.4 °F 38.5 °F 29.79 in WNW 8.1 mph 10.0 mph 21% 0.00 in 907.0 W/m2
13:51 83.5 °F 38.1 °F 29.78 in Calm   8.0 mph 20% 0.00 in 893.0 W/m2
14:05 83.8 °F 34.3 °F 29.78 in Calm   2.0 mph 17% 0.00 in 879.0 W/m2
14:12 84.7 °F 36.5 °F 29.78 in Calm     18% 0.00 in 865.0 W/m2
14:22 84.9 °F 36.7 °F 29.76 in NW 8.1 mph 12.0 mph 18% 0.00 in 851.0 W/m2
14:27 85.3 °F 35.6 °F 29.76 in NW 8.9 mph 11.0 mph 17% 0.00 in 842.0 W/m2
14:32 84.9 °F 36.7 °F 29.76 in NW 8.9 mph 13.0 mph 18% 0.00 in 831.0 W/m2
14:57 86.4 °F 36.3 °F 29.75 in NW 6.9 mph 12.0 mph 17% 0.00 in 795.0 W/m2
15:12 86.7 °F 36.7 °F 29.74 in Calm     17% 0.00 in 763.0 W/m2
16:03 87.8 °F 34.3 °F 29.72 in NW 6.0 mph 11.0 mph 15% 0.00 in 638.0 W/m2
16:17 88.3 °F 33.1 °F 29.71 in NW 6.9 mph 15.0 mph 14% 0.00 in 589.0 W/m2
16:29 88.2 °F 32.9 °F 29.71 in Calm     14% 0.00 in 554.0 W/m2
16:44 88.9 °F 29.7 °F 29.70 in NW 4.9 mph 7.0 mph 12% 0.00 in 506.0 W/m2
17:00 88.9 °F 29.7 °F 29.70 in NW 0.9 mph 1.0 mph 12% 0.00 in 455.0 W/m2
17:15 88.9 °F 25.3 °F 29.70 in NW 4.9 mph 8.0 mph 10% 0.00 in 408.0 W/m2
17:29 89.2 °F 25.5 °F 29.69 in NW 6.9 mph 11.0 mph 10% 0.00 in 355.0 W/m2
17:45 89.6 °F 25.9 °F 29.69 in NW 4.9 mph 7.0 mph 10% 0.00 in 299.0 W/m2
18:42 89.6 °F 20.5 °F 29.68 in Calm     8% 0.00 in 79.0 W/m2
18:56 88.0 °F 22.1 °F 29.68 in Calm     9% 0.00 in 18.0 W/m2
19:06 87.3 °F 24.1 °F 29.68 in Calm     10% 0.00 in 9.0 W/m2
19:23 85.8 °F 23.0 °F 29.68 in Calm     10% 0.00 in 0.0 W/m2
19:38 84.9 °F 26.6 °F 29.68 in West 6.0 mph 12.0 mph 12% 0.00 in 0.0 W/m2
19:52 83.5 °F 29.3 °F 29.70 in South 13.0 mph 17.0 mph 14% 0.00 in 0.0 W/m2
20:07 82.4 °F 31.6 °F 29.70 in South 6.9 mph 13.0 mph 16% 0.00 in 0.0 W/m2
20:22 81.3 °F 36.5 °F 29.70 in South 14.1 mph 18.0 mph 20% 0.00 in 0.0 W/m2
20:52 80.2 °F 35.6 °F 29.72 in South 8.9 mph 13.0 mph 20% 0.00 in 0.0 W/m2
21:39 78.1 °F 40.5 °F 29.74 in SSW 11.0 mph 16.0 mph 26% 0.00 in 0.0 W/m2
21:51 77.2 °F 39.6 °F 29.74 in SSW 8.1 mph 14.0 mph 26% 0.00 in 0.0 W/m2
22:01 76.8 °F 39.4 °F 29.74 in SSW 11.0 mph 14.0 mph 26% 0.00 in 0.0 W/m2
22:09 76.3 °F 38.8 °F 29.74 in SSW 11.0 mph 12.0 mph 26% 0.00 in 0.0 W/m2
22:18 75.9 °F 38.7 °F 29.75 in SSW 12.1 mph 12.1 mph 26% 0.00 in 0.0 W/m2
22:23 75.7 °F 38.5 °F 29.75 in SSW 8.9 mph 13.0 mph 26% 0.00 in 0.0 W/m2
22:28 75.7 °F 38.5 °F 29.75 in SSW 8.1 mph 10.0 mph 26% 0.00 in 0.0 W/m2
22:33 75.6 °F 38.3 °F 29.75 in SSW 10.1 mph 14.0 mph 26% 0.00 in 0.0 W/m2
22:38 75.4 °F 38.1 °F 29.75 in SSW 12.1 mph 13.0 mph 26% 0.00 in 0.0 W/m2
22:48 74.7 °F 37.6 °F 29.75 in SSW 6.9 mph 11.0 mph 26% 0.00 in 0.0 W/m2
22:53 74.5 °F 37.4 °F 29.75 in SSW 10.1 mph 10.1 mph 26% 0.00 in 0.0 W/m2
22:58 74.1 °F 37.0 °F 29.75 in SSW 8.1 mph 10.0 mph 26% 0.00 in 0.0 W/m2
23:03 73.8 °F 36.7 °F 29.75 in SSW 8.1 mph 8.1 mph 26% 0.00 in 0.0 W/m2
23:13 73.6 °F 36.5 °F 29.75 in SSW 6.9 mph 10.0 mph 26% 0.00 in 0.0 W/m2
23:18 73.2 °F 36.3 °F 29.75 in SSW 6.0 mph 9.0 mph 26% 0.00 in 0.0 W/m2
23:23 73.0 °F 36.1 °F 29.75 in SSW 4.0 mph 8.0 mph 26% 0.00 in 0.0 W/m2
23:33 72.9 °F 36.9 °F 29.75 in SSW 6.9 mph 9.0 mph 27% 0.00 in 0.0 W/m2
23:38 72.9 °F 36.9 °F 29.75 in SSW 4.9 mph 9.0 mph 27% 0.00 in 0.0 W/m2
23:44 72.5 °F 37.6 °F 29.75 in SSW 8.1 mph 9.0 mph 28% 0.00 in 0.0 W/m2
23:49 72.3 °F 37.4 °F 29.75 in SSW 8.9 mph 9.0 mph 28% 0.00 in 0.0 W/m2
23:58 72.1 °F 37.2 °F 29.76 in SSW 6.0 mph 9.0 mph 28% 0.00 in 0.0 W/m2
Canyon Roadhouse, Fishriver Canyon, Namibia
Compliments of Weather Underground - 2.25 mb